Time;durP1;ratioP1;P1;durP2;ratioP2;P2;SDS_P1;SDS_P2;PMS_P1;PMS_P2;Temp;Humidity;BMP_temperature;BMP_pressure;BME280_temperature;BME280_humidity;BME280_pressure;Samples;Min_cycle;Max_cycle;Signal;HPM_P1;HPM_P2
2022/05/18 00:01:43;;;;;;;6.40;3.53;;;17.40;99.90;;;;;;5054285;28;20024;-68
2022/05/18 00:04:11;;;;;;;7.45;4.15;;;17.40;99.90;;;;;;5054101;28;20053;-70
2022/05/18 00:06:37;;;;;;;9.85;5.15;;;17.40;99.90;;;;;;5054246;28;20029;-69
2022/05/18 00:09:03;;;;;;;13.18;5.30;;;17.40;99.90;;;;;;5053966;28;20029;-69
2022/05/18 00:11:31;;;;;;;9.43;4.70;;;17.40;99.90;;;;;;5054007;28;20360;-69
2022/05/18 00:13:57;;;;;;;7.45;3.83;;;17.30;99.90;;;;;;5053994;28;20083;-69
2022/05/18 00:16:26;;;;;;;6.00;3.40;;;17.30;99.90;;;;;;5053814;28;20040;-69
2022/05/18 00:18:52;;;;;;;7.30;3.67;;;17.20;99.90;;;;;;5053854;28;20033;-67
2022/05/18 00:21:18;;;;;;;4.80;2.58;;;17.20;99.90;;;;;;5053947;28;20033;-69
2022/05/18 00:23:47;;;;;;;5.95;3.58;;;17.20;99.90;;;;;;5053941;28;20029;-69
2022/05/18 00:26:13;;;;;;;4.60;3.17;;;17.20;99.90;;;;;;5053616;28;20044;-69
2022/05/18 00:28:38;;;;;;;7.13;3.22;;;17.20;99.90;;;;;;5053627;28;20168;-68
2022/05/18 00:31:04;;;;;;;4.28;3.05;;;17.20;99.90;;;;;;5053685;28;20060;-68
2022/05/18 00:33:31;;;;;;;8.02;3.38;;;17.20;99.90;;;;;;5053739;28;20037;-69
2022/05/18 00:35:58;;;;;;;4.75;2.90;;;17.30;99.90;;;;;;5053542;28;20029;-68
2022/05/18 00:38:24;;;;;;;5.65;2.95;;;17.30;99.90;;;;;;5053651;28;20060;-69
2022/05/18 00:40:50;;;;;;;4.53;3.05;;;17.30;99.90;;;;;;5053580;28;20025;-70
2022/05/18 00:43:34;;;;;;;7.82;3.45;;;17.30;99.90;;;;;;5053409;28;20029;-69
2022/05/18 00:46:04;;;;;;;7.20;3.75;;;17.30;99.90;;;;;;5053383;28;20037;-66
2022/05/18 00:48:30;;;;;;;8.65;3.47;;;17.30;99.90;;;;;;5053123;28;20057;-68
2022/05/18 00:51:01;;;;;;;6.13;3.17;;;17.30;99.90;;;;;;5053405;28;20475;-68
2022/05/18 00:53:31;;;;;;;6.35;4.13;;;17.20;99.90;;;;;;5053333;28;20111;-69
2022/05/18 00:56:03;;;;;;;8.27;3.67;;;17.20;99.90;;;;;;5053302;28;20440;-68
2022/05/18 00:58:41;;;;;;;5.15;3.35;;;17.20;99.90;;;;;;5052954;28;20433;-69
2022/05/18 01:01:08;;;;;;;5.10;3.17;;;17.20;99.90;;;;;;5052727;28;20109;-68
2022/05/18 01:03:42;;;;;;;5.72;3.45;;;17.20;99.90;;;;;;5048359;28;20390;-68
2022/05/18 01:06:19;;;;;;;6.00;3.28;;;17.20;99.90;;;;;;5043256;28;20021;-68
2022/05/18 01:09:02;;;;;;;6.05;4.20;;;17.20;99.90;;;;;;5052813;28;20501;-68
2022/05/18 01:11:29;;;;;;;4.90;3.30;;;17.20;99.90;;;;;;5033107;28;20030;-68
2022/05/18 01:13:55;;;;;;;8.05;3.47;;;17.20;99.90;;;;;;5032971;28;20083;-69
2022/05/18 01:16:23;;;;;;;10.60;3.50;;;17.20;99.90;;;;;;5032892;28;20497;-69
2022/05/18 01:18:50;;;;;;;5.80;3.10;;;17.20;99.90;;;;;;5032621;28;20028;-68
2022/05/18 01:21:16;;;;;;;10.50;3.70;;;17.30;99.90;;;;;;5045581;28;20044;-68
2022/05/18 01:23:56;;;;;;;6.82;4.28;;;17.30;99.90;;;;;;5052576;28;20797;-69
2022/05/18 01:26:46;;;;;;;8.23;3.58;;;17.30;99.90;;;;;;5052778;28;20033;-69
2022/05/18 01:29:16;;;;;;;6.75;3.40;;;17.30;99.90;;;;;;5052916;28;20036;-68
2022/05/18 01:32:04;;;;;;;9.88;4.13;;;17.30;99.90;;;;;;5052603;28;20078;-69
2022/05/18 01:34:35;;;;;;;5.55;3.17;;;17.30;99.90;;;;;;5052630;28;20036;-70
2022/05/18 01:37:02;;;;;;;6.65;3.97;;;17.30;99.90;;;;;;5052468;28;20025;-68
2022/05/18 01:39:30;;;;;;;9.65;4.07;;;17.30;99.90;;;;;;5049207;28;20456;-69
2022/05/18 01:42:06;;;;;;;6.93;4.30;;;17.20;99.90;;;;;;5032711;28;20109;-70
2022/05/18 01:44:35;;;;;;;6.57;3.50;;;17.20;99.90;;;;;;5032381;28;20111;-69
2022/05/18 01:47:01;;;;;;;5.72;3.90;;;17.20;99.90;;;;;;5032534;28;20050;-68
2022/05/18 01:49:27;;;;;;;6.70;4.40;;;17.20;99.90;;;;;;5032978;28;20079;-70
2022/05/18 01:51:56;;;;;;;9.38;4.18;;;17.10;99.90;;;;;;5032674;28;20410;-69
2022/05/18 01:54:21;;;;;;;6.72;4.05;;;17.10;99.90;;;;;;5032540;28;20029;-69
2022/05/18 01:56:47;;;;;;;6.55;4.50;;;17.00;99.90;;;;;;5032510;28;20025;-69
2022/05/18 01:59:13;;;;;;;7.43;3.78;;;17.00;99.90;;;;;;5032188;28;20025;-70
2022/05/18 02:01:44;;;;;;;8.25;4.60;;;17.10;99.90;;;;;;5032761;28;20032;-69
2022/05/18 02:04:12;;;;;;;9.63;4.40;;;17.10;99.90;;;;;;5032913;28;20045;-69
2022/05/18 02:06:39;;;;;;;7.30;4.18;;;17.20;99.90;;;;;;5032353;28;20026;-68
2022/05/18 02:09:05;;;;;;;10.38;4.95;;;17.10;99.90;;;;;;5032269;28;20498;-69
2022/05/18 02:11:33;;;;;;;7.45;4.93;;;17.20;99.90;;;;;;5032105;28;20082;-69
2022/05/18 02:13:59;;;;;;;8.85;4.15;;;17.20;99.90;;;;;;5032228;28;20426;-68
2022/05/18 02:16:25;;;;;;;8.10;4.72;;;17.20;99.90;;;;;;5032283;28;20034;-69
2022/05/18 02:18:51;;;;;;;9.65;5.13;;;17.20;99.90;;;;;;5032323;28;20022;-69
2022/05/18 02:21:17;;;;;;;9.60;4.75;;;17.20;99.90;;;;;;5032495;28;20025;-69
2022/05/18 02:23:44;;;;;;;7.13;4.63;;;17.30;99.90;;;;;;5032477;28;20022;-68
2022/05/18 02:26:13;;;;;;;8.75;5.00;;;17.20;99.90;;;;;;5032406;28;20029;-69
2022/05/18 02:28:40;;;;;;;10.35;5.15;;;17.20;99.90;;;;;;5031964;28;20062;-70
2022/05/18 02:31:06;;;;;;;6.72;4.30;;;17.30;99.90;;;;;;5035721;28;20075;-69
2022/05/18 02:33:32;;;;;;;9.20;5.10;;;17.30;99.90;;;;;;5036137;28;20411;-68
2022/05/18 02:35:58;;;;;;;9.23;5.13;;;17.30;99.90;;;;;;5035836;28;20120;-69
2022/05/18 02:38:24;;;;;;;8.63;4.95;;;17.30;99.90;;;;;;5036175;28;20109;-69
2022/05/18 02:40:50;;;;;;;11.13;4.60;;;17.30;99.90;;;;;;5035929;28;20030;-69
2022/05/18 02:43:15;;;;;;;11.05;5.28;;;17.30;99.90;;;;;;5035709;28;20021;-68
2022/05/18 02:45:41;;;;;;;10.27;5.63;;;17.30;99.90;;;;;;5035870;28;20029;-68
2022/05/18 02:48:11;;;;;;;9.35;4.97;;;17.30;99.90;;;;;;5035439;28;20115;-70
2022/05/18 02:50:37;;;;;;;11.15;5.65;;;17.30;99.90;;;;;;5035642;28;20104;-70
2022/05/18 02:53:02;;;;;;;8.32;5.43;;;17.30;99.90;;;;;;5035886;28;20435;-69
2022/05/18 02:58:12;;;;;;;11.13;6.07;;;17.40;99.90;;;;;;5035266;28;20446;-69
2022/05/18 03:00:39;;;;;;;8.70;5.20;;;17.30;99.90;;;;;;5035413;28;20055;-69
2022/05/18 03:03:05;;;;;;;10.73;6.45;;;17.30;99.90;;;;;;5051636;28;20041;-69
2022/05/18 03:05:31;;;;;;;11.75;6.68;;;17.30;99.90;;;;;;5055394;28;20025;-69
2022/05/18 03:07:58;;;;;;;12.88;7.30;;;17.30;99.90;;;;;;5055358;28;20037;-69
2022/05/18 03:10:24;;;;;;;12.00;7.40;;;17.40;99.90;;;;;;5055247;28;20078;-70
2022/05/18 03:12:50;;;;;;;12.48;7.30;;;17.30;99.90;;;;;;5054808;28;20029;-70
2022/05/18 03:15:16;;;;;;;11.82;7.13;;;17.40;99.90;;;;;;5054935;28;20025;-70
2022/05/18 03:17:42;;;;;;;11.70;7.22;;;17.40;99.90;;;;;;5034973;28;20468;-70
2022/05/18 03:23:33;;;;;;;13.40;6.90;;;17.40;99.90;;;;;;5035436;28;20029;-70
2022/05/18 03:25:40;;;;;;;13.32;9.18;;;17.50;99.90;;;;;;5035058;28;20452;-70
2022/05/18 03:28:06;;;;;;;15.65;9.27;;;17.40;99.90;;;;;;5035076;28;20034;-70
2022/05/18 03:30:32;;;;;;;12.80;9.18;;;17.40;99.90;;;;;;5035055;28;20486;-70
2022/05/18 03:33:01;;;;;;;15.32;9.27;;;17.40;99.90;;;;;;5035135;28;20052;-70
2022/05/18 03:35:27;;;;;;;15.32;7.95;;;17.30;99.90;;;;;;5034817;28;20025;-71
2022/05/18 03:37:55;;;;;;;12.32;7.88;;;17.30;99.90;;;;;;5034520;28;20022;-69
2022/05/18 03:40:21;;;;;;;15.30;8.35;;;17.30;99.90;;;;;;5034635;28;20135;-70
2022/05/18 03:42:47;;;;;;;15.55;8.57;;;17.10;99.90;;;;;;5034745;28;20483;-70
2022/05/18 03:45:15;;;;;;;14.73;7.93;;;17.00;99.90;;;;;;5034716;28;20499;-70
2022/05/18 03:47:44;;;;;;;10.48;7.60;;;16.90;99.90;;;;;;5034125;28;20123;-70
2022/05/18 03:50:11;;;;;;;12.48;7.47;;;16.70;99.90;;;;;;5034780;28;20022;-69
2022/05/18 03:52:37;;;;;;;15.48;7.38;;;16.50;99.90;;;;;;5034528;28;20109;-69
2022/05/18 03:55:03;;;;;;;8.85;5.75;;;16.40;99.90;;;;;;5034430;28;20116;-71
2022/05/18 03:57:28;;;;;;;10.10;6.78;;;16.20;99.90;;;;;;5034209;28;20029;-70
2022/05/18 03:59:54;;;;;;;10.45;6.47;;;16.20;99.90;;;;;;5034318;28;20472;-69
2022/05/18 04:02:20;;;;;;;11.77;6.22;;;16.20;99.90;;;;;;5034075;28;20057;-69
2022/05/18 04:04:46;;;;;;;11.50;7.35;;;16.10;99.90;;;;;;5034050;28;20033;-70
2022/05/18 04:07:11;;;;;;;9.35;6.22;;;16.10;99.90;;;;;;5043514;28;20036;-69
2022/05/18 04:09:38;;;;;;;11.48;6.07;;;16.10;99.90;;;;;;5040015;28;20034;-68
2022/05/18 04:12:06;;;;;;;10.85;5.75;;;16.00;99.90;;;;;;5032045;28;20033;-68
2022/05/18 04:14:37;;;;;;;9.35;5.35;;;16.10;99.90;;;;;;5033722;28;20112;-70
2022/05/18 04:17:03;;;;;;;11.82;5.68;;;16.10;99.90;;;;;;5033723;28;20109;-70
2022/05/18 04:19:29;;;;;;;14.35;5.65;;;16.10;99.90;;;;;;5033864;28;20052;-69
2022/05/18 04:21:56;;;;;;;6.57;5.05;;;16.20;99.90;;;;;;5033311;28;20018;-69
2022/05/18 04:24:22;;;;;;;6.22;4.65;;;16.20;99.90;;;;;;5032947;28;20041;-68
2022/05/18 04:26:48;;;;;;;9.40;5.03;;;16.30;99.90;;;;;;5044178;28;20100;-68
2022/05/18 04:29:13;;;;;;;7.72;4.97;;;16.20;99.90;;;;;;5038901;28;20467;-70
2022/05/18 04:31:42;;;;;;;8.23;4.97;;;16.30;99.90;;;;;;5033680;28;20024;-71
2022/05/18 04:34:08;;;;;;;9.35;5.30;;;16.30;99.90;;;;;;5033514;28;20479;-70
2022/05/18 04:36:34;;;;;;;9.07;4.50;;;16.30;99.90;;;;;;5033589;28;20033;-71
2022/05/18 04:39:02;;;;;;;7.60;5.00;;;16.40;99.90;;;;;;5033311;28;20075;-72
2022/05/18 04:41:28;;;;;;;10.60;5.28;;;16.40;99.90;;;;;;5033634;28;20120;-72
2022/05/18 04:43:54;;;;;;;9.65;4.88;;;16.40;99.90;;;;;;5033213;28;20026;-72
2022/05/18 04:46:20;;;;;;;8.35;4.82;;;16.40;99.90;;;;;;5032961;28;20040;-72
2022/05/18 04:48:46;;;;;;;7.80;5.70;;;16.40;99.90;;;;;;5033354;28;20038;-72
2022/05/18 04:51:11;;;;;;;9.80;5.57;;;16.40;99.90;;;;;;5033809;28;20028;-72
2022/05/18 04:53:37;;;;;;;9.75;5.32;;;16.50;99.90;;;;;;5032529;28;20404;-73
2022/05/18 04:56:04;;;;;;;11.35;6.38;;;16.50;99.90;;;;;;5033342;28;20539;-73
2022/05/18 04:58:30;;;;;;;11.77;6.18;;;16.50;99.90;;;;;;5033001;28;20109;-73
2022/05/18 05:01:01;;;;;;;12.43;6.40;;;16.50;99.90;;;;;;5033301;28;20037;-72
2022/05/18 05:03:27;;;;;;;11.05;6.00;;;16.50;99.90;;;;;;5033458;28;20042;-72
2022/05/18 05:05:53;;;;;;;11.82;5.50;;;16.40;99.90;;;;;;5033183;28;20079;-72
2022/05/18 05:08:19;;;;;;;9.57;5.22;;;16.50;99.90;;;;;;5032479;28;20049;-73
2022/05/18 05:10:45;;;;;;;12.52;6.47;;;16.60;99.90;;;;;;5032292;28;20381;-72
2022/05/18 05:13:11;;;;;;;12.07;4.93;;;16.80;99.90;;;;;;5032935;28;20022;-72
2022/05/18 05:15:37;;;;;;;12.82;4.88;;;16.90;99.90;;;;;;5032728;28;20017;-72
2022/05/18 05:18:03;;;;;;;8.57;4.72;;;17.00;99.90;;;;;;5033332;28;20029;-72
2022/05/18 05:20:29;;;;;;;15.45;6.40;;;17.10;99.90;;;;;;5032958;28;20026;-72
2022/05/18 05:22:55;;;;;;;8.90;3.83;;;17.20;99.90;;;;;;5032737;28;20511;-73
2022/05/18 05:25:21;;;;;;;8.18;4.15;;;17.20;99.90;;;;;;5033227;28;20049;-72
2022/05/18 05:27:47;;;;;;;7.75;3.58;;;17.30;99.90;;;;;;5032535;28;20030;-71
2022/05/18 05:30:14;;;;;;;7.22;4.00;;;17.40;99.90;;;;;;5032736;28;20026;-73
2022/05/18 05:32:41;;;;;;;6.47;3.70;;;17.50;99.90;;;;;;5032428;28;20029;-72
2022/05/18 05:35:11;;;;;;;5.63;3.53;;;17.40;99.90;;;;;;5032909;28;20026;-71
2022/05/18 05:37:37;;;;;;;4.57;2.85;;;17.70;99.90;;;;;;5032605;28;20048;-72
2022/05/18 05:40:05;;;;;;;5.40;3.53;;;17.70;99.90;;;;;;5032784;28;20021;-73
2022/05/18 05:42:30;;;;;;;7.07;3.17;;;17.80;99.90;;;;;;5032251;28;20029;-73
2022/05/18 05:44:56;;;;;;;11.63;3.65;;;18.20;99.90;;;;;;5032263;28;20029;-71
2022/05/18 05:47:25;;;;;;;10.07;2.75;;;18.60;99.90;;;;;;5032032;28;20049;-72
2022/05/18 05:49:50;;;;;;;6.32;2.35;;;18.40;99.90;;;;;;5032446;28;20036;-71
2022/05/18 05:52:16;;;;;;;4.65;2.40;;;18.10;99.90;;;;;;5032488;28;20021;-71
2022/05/18 05:54:44;;;;;;;5.50;2.13;;;18.20;99.90;;;;;;5032531;28;20499;-73
2022/05/18 05:57:10;;;;;;;3.03;2.05;;;18.10;99.90;;;;;;5032299;28;20024;-72
2022/05/18 05:59:37;;;;;;;3.40;2.47;;;17.90;99.90;;;;;;5032650;28;20392;-73
2022/05/18 06:02:06;;;;;;;5.13;2.40;;;17.80;99.90;;;;;;5032019;28;20104;-73
2022/05/18 06:04:34;;;;;;;1.75;1.60;;;17.70;99.90;;;;;;5033716;28;20431;-73
2022/05/18 06:07:00;;;;;;;4.55;2.25;;;17.50;99.90;;;;;;5036181;28;20025;-72
2022/05/18 06:09:26;;;;;;;3.67;1.88;;;17.40;99.90;;;;;;5035461;28;20119;-73
2022/05/18 06:11:52;;;;;;;4.00;2.13;;;17.40;99.90;;;;;;5035232;28;20021;-72
2022/05/18 06:14:18;;;;;;;4.00;1.85;;;17.30;99.90;;;;;;5034901;28;20033;-72
2022/05/18 06:16:48;;;;;;;5.95;2.13;;;17.20;99.90;;;;;;5036057;28;20083;-72
2022/05/18 06:19:15;;;;;;;2.63;2.03;;;17.20;99.90;;;;;;5036267;28;20028;-72
2022/05/18 06:21:41;;;;;;;3.90;2.60;;;17.20;99.90;;;;;;5036032;28;20028;-71
2022/05/18 06:24:07;;;;;;;3.95;2.10;;;17.20;99.90;;;;;;5036002;28;20029;-73
2022/05/18 06:26:34;;;;;;;3.90;2.13;;;17.30;99.90;;;;;;5035962;28;20375;-71
2022/05/18 06:29:00;;;;;;;10.25;2.65;;;17.50;99.90;;;;;;5035902;28;20037;-72
2022/05/18 06:31:26;;;;;;;4.50;2.08;;;17.70;99.90;;;;;;5035806;28;20022;-72
2022/05/18 06:33:51;;;;;;;4.70;1.80;;;18.00;99.90;;;;;;5035894;28;20124;-71
2022/05/18 06:36:17;;;;;;;5.38;2.10;;;18.00;99.90;;;;;;5035998;28;20018;-73
2022/05/18 06:38:43;;;;;;;4.75;1.75;;;17.90;98.90;;;;;;5035745;28;20042;-71
2022/05/18 06:41:24;;;;;;;3.88;2.10;;;17.90;99.90;;;;;;5035770;28;20029;-72
2022/05/18 06:43:53;;;;;;;5.38;1.90;;;17.70;99.90;;;;;;5035216;28;20073;-72
2022/05/18 06:46:22;;;;;;;4.85;1.60;;;17.50;98.60;;;;;;5035547;28;20056;-71
2022/05/18 06:48:48;;;;;;;3.95;2.00;;;17.50;99.50;;;;;;5034235;28;20139;-72
2022/05/18 06:51:19;;;;;;;4.60;2.30;;;17.40;98.20;;;;;;5032730;28;20037;-72
2022/05/18 06:53:46;;;;;;;4.82;1.63;;;17.50;98.40;;;;;;5034021;28;20060;-71
2022/05/18 06:56:12;;;;;;;4.35;1.70;;;17.40;99.70;;;;;;5034257;28;20017;-72
2022/05/18 06:58:41;;;;;;;4.00;2.22;;;17.60;98.70;;;;;;5034139;28;20380;-72
2022/05/18 07:01:07;;;;;;;2.03;1.70;;;17.60;98.00;;;;;;5034012;28;20021;-73
2022/05/18 07:03:34;;;;;;;4.13;1.83;;;17.60;97.90;;;;;;5052519;28;20037;-72
2022/05/18 07:06:03;;;;;;;4.47;1.88;;;17.70;98.20;;;;;;5054840;28;20021;-72
2022/05/18 07:08:29;;;;;;;8.57;1.73;;;17.60;96.10;;;;;;5054797;28;20056;-71
2022/05/18 07:10:55;;;;;;;3.53;1.63;;;17.60;95.70;;;;;;5055151;28;20455;-71
2022/05/18 07:13:21;;;;;;;9.13;1.60;;;17.60;96.80;;;;;;5054622;28;20448;-72
2022/05/18 07:15:47;;;;;;;2.65;1.75;;;17.80;92.40;;;;;;5053920;28;20489;-73
2022/05/18 07:18:14;;;;;;;6.93;1.88;;;17.70;94.70;;;;;;5054797;28;20394;-72
2022/05/18 07:20:41;;;;;;;3.33;1.73;;;17.70;91.40;;;;;;5054898;28;20021;-71
2022/05/18 07:23:07;;;;;;;3.53;1.70;;;18.10;91.50;;;;;;5054907;28;20441;-72
2022/05/18 07:25:33;;;;;;;3.10;1.80;;;18.30;91.60;;;;;;5054876;28;20025;-72
2022/05/18 07:27:59;;;;;;;3.00;1.55;;;18.60;86.40;;;;;;5054318;28;20458;-72
2022/05/18 07:30:25;;;;;;;6.43;1.98;;;18.80;83.50;;;;;;5054307;28;20022;-72
2022/05/18 07:32:51;;;;;;;4.13;1.88;;;19.10;82.50;;;;;;5054208;28;20467;-71
2022/05/18 07:35:17;;;;;;;4.50;1.90;;;19.20;83.40;;;;;;5054804;28;20025;-71
2022/05/18 07:37:43;;;;;;;4.70;2.17;;;19.20;81.30;;;;;;5054494;28;20032;-72
2022/05/18 07:40:09;;;;;;;2.55;1.70;;;19.30;90.00;;;;;;5054567;28;20099;-69
2022/05/18 07:42:35;;;;;;;2.92;1.70;;;19.60;84.20;;;;;;5054915;28;20033;-71
2022/05/18 07:45:02;;;;;;;2.03;1.67;;;19.60;77.30;;;;;;5054475;28;20021;-72
2022/05/18 07:47:30;;;;;;;10.38;2.20;;;19.60;74.50;;;;;;5054195;28;20081;-71
2022/05/18 07:49:56;;;;;;;2.20;1.80;;;19.50;75.10;;;;;;5054200;28;20475;-72
2022/05/18 07:52:22;;;;;;;6.55;1.85;;;19.60;72.60;;;;;;5054222;28;20083;-71
2022/05/18 07:54:47;;;;;;;5.80;1.70;;;19.70;74.90;;;;;;5054195;28;20124;-70
2022/05/18 07:57:15;;;;;;;3.63;1.80;;;20.00;73.00;;;;;;5053988;28;20586;-69
2022/05/18 07:59:41;;;;;;;1.83;1.13;;;19.90;71.60;;;;;;5054081;28;20025;-71
2022/05/18 08:02:07;;;;;;;5.55;2.10;;;20.10;71.30;;;;;;5054097;28;20059;-71
2022/05/18 08:04:35;;;;;;;6.78;1.60;;;20.20;71.90;;;;;;5053965;28;20420;-72
2022/05/18 08:07:04;;;;;;;4.30;1.70;;;20.30;69.30;;;;;;5054228;28;20183;-71
2022/05/18 08:15:05;;;;;;;3.88;1.50;;;20.50;73.50;;;;;;5053724;28;20036;-71
2022/05/18 08:15:08;;;;;;;5.07;1.80;;;20.50;71.50;;;;;;5053859;28;20079;-71
2022/05/18 08:17:34;;;;;;;3.58;2.05;;;20.30;67.10;;;;;;5054032;28;20431;-71
2022/05/18 08:20:04;;;;;;;3.17;1.45;;;20.30;68.80;;;;;;5053715;28;20056;-70
2022/05/18 08:22:30;;;;;;;4.72;2.13;;;20.10;67.50;;;;;;5053652;28;20040;-72
2022/05/18 08:24:56;;;;;;;2.65;1.50;;;20.60;71.00;;;;;;5053904;28;20451;-72
2022/05/18 08:27:22;;;;;;;3.55;1.60;;;21.10;72.00;;;;;;5052615;28;20033;-72
2022/05/18 08:29:47;;;;;;;3.03;1.00;;;20.80;67.80;;;;;;5053897;28;20033;-70
2022/05/18 08:32:13;;;;;;;3.47;1.70;;;20.80;68.00;;;;;;5053125;28;20477;-71
2022/05/18 08:34:39;;;;;;;6.05;1.70;;;20.50;66.30;;;;;;5053555;28;20048;-72
2022/05/18 08:37:05;;;;;;;8.10;1.73;;;20.70;67.80;;;;;;5053492;28;20387;-72
2022/05/18 08:39:31;;;;;;;3.40;1.70;;;20.50;65.90;;;;;;5053592;28;20025;-72
2022/05/18 08:41:58;;;;;;;8.05;2.00;;;20.60;67.30;;;;;;5053511;28;20049;-72
2022/05/18 08:44:31;;;;;;;3.90;1.60;;;20.70;66.50;;;;;;5053295;28;20032;-72
2022/05/18 08:47:24;;;;;;;3.33;1.52;;;20.70;66.80;;;;;;5053130;28;20049;-72
2022/05/18 08:50:10;;;;;;;1.40;1.13;;;20.40;64.50;;;;;;5053682;28;20116;-72
2022/05/18 08:53:15;;;;;;;10.02;1.88;;;20.30;65.10;;;;;;5053353;28;20028;-71
2022/05/18 08:56:08;;;;;;;1.80;1.00;;;20.30;65.40;;;;;;5053140;28;20029;-72
2022/05/18 08:58:49;;;;;;;2.78;1.50;;;20.50;63.50;;;;;;5053075;28;20048;-72
2022/05/18 09:01:22;;;;;;;5.30;1.45;;;20.30;62.80;;;;;;5053081;28;20024;-71
2022/05/18 09:04:11;;;;;;;3.50;1.63;;;20.30;62.20;;;;;;5052935;28;20078;-72
2022/05/18 09:07:03;;;;;;;2.35;1.15;;;20.50;63.10;;;;;;5053027;28;20028;-72
2022/05/18 09:12:23;;;;;;;9.02;1.67;;;20.80;63.30;;;;;;5050796;28;20049;-72
2022/05/18 09:14:50;;;;;;;4.32;1.60;;;20.60;60.20;;;;;;5050466;28;20043;-71
2022/05/18 09:17:47;;;;;;;3.85;1.02;;;20.40;60.60;;;;;;5050377;28;20044;-71
2022/05/18 09:20:28;;;;;;;2.70;1.20;;;20.80;59.40;;;;;;5050411;28;20049;-71
2022/05/18 09:23:02;;;;;;;2.03;1.38;;;20.50;60.40;;;;;;5050542;28;20037;-72
2022/05/18 09:25:37;;;;;;;3.20;1.40;;;20.50;59.20;;;;;;5050497;28;20033;-72
2022/05/18 09:28:15;;;;;;;3.35;1.50;;;20.80;59.50;;;;;;5046575;28;20522;-72
2022/05/18 09:30:44;;;;;;;5.20;1.83;;;20.90;59.70;;;;;;5048005;28;20028;-72
2022/05/18 09:33:29;;;;;;;6.10;1.60;;;20.70;59.20;;;;;;5048881;28;20036;-71
2022/05/18 09:36:12;;;;;;;3.28;1.27;;;20.50;58.50;;;;;;5049133;28;20102;-72
2022/05/18 09:38:47;;;;;;;3.92;1.48;;;20.90;59.30;;;;;;5048650;28;20563;-72
2022/05/18 09:41:18;;;;;;;6.68;1.55;;;20.90;57.90;;;;;;5050280;28;20036;-71
2022/05/18 09:43:59;;;;;;;2.50;1.20;;;21.00;56.80;;;;;;5050068;28;20488;-71
2022/05/18 09:46:28;;;;;;;3.35;1.48;;;20.90;58.00;;;;;;5048284;28;20049;-70
2022/05/18 09:49:03;;;;;;;3.03;1.20;;;21.10;59.90;;;;;;5051406;28;20049;-72
2022/05/18 09:51:30;;;;;;;1.77;1.05;;;20.80;58.70;;;;;;5050708;28;20051;-71
2022/05/18 09:53:59;;;;;;;2.63;1.38;;;20.90;59.30;;;;;;5052099;28;20029;-71
2022/05/18 09:56:30;;;;;;;3.58;1.23;;;20.80;58.70;;;;;;5052333;28;20024;-71
2022/05/18 09:59:01;;;;;;;6.80;1.92;;;20.80;57.70;;;;;;5051893;28;20030;-72
2022/05/18 10:07:27;;;;;;;6.07;1.55;;;20.90;57.80;;;;;;5052165;28;20021;-70
2022/05/18 10:10:20;;;;;;;4.28;1.67;;;21.10;58.60;;;;;;5052383;28;20159;-71
2022/05/18 10:12:53;;;;;;;2.90;1.30;;;20.90;57.50;;;;;;5051999;28;20041;-71
2022/05/18 10:15:22;;;;;;;7.38;1.60;;;21.00;58.00;;;;;;5052510;28;20036;-71
2022/05/18 10:17:58;;;;;;;3.53;1.50;;;21.20;57.30;;;;;;5051126;28;20107;-71
2022/05/18 10:20:29;;;;;;;4.25;1.42;;;21.30;57.50;;;;;;5051005;28;20040;-71
2022/05/18 10:22:57;;;;;;;4.63;1.35;;;21.30;58.10;;;;;;5051893;28;20025;-71
2022/05/18 10:25:42;;;;;;;4.95;2.08;;;20.80;57.00;;;;;;5051649;28;20485;-71
2022/05/18 10:28:24;;;;;;;2.53;1.42;;;20.90;57.80;;;;;;5051756;28;20045;-71
2022/05/18 10:31:03;;;;;;;5.88;1.95;;;21.00;57.10;;;;;;5051989;28;20029;-72
2022/05/18 10:33:38;;;;;;;3.13;1.75;;;21.10;57.50;;;;;;5051342;28;20104;-71
2022/05/18 10:36:09;;;;;;;10.50;1.65;;;21.40;58.70;;;;;;5051614;28;20040;-72
2022/05/18 10:38:36;;;;;;;9.03;1.83;;;21.40;59.40;;;;;;5051533;28;20040;-72
2022/05/18 10:41:07;;;;;;;3.72;1.50;;;21.40;57.40;;;;;;5051944;28;20254;-72
2022/05/18 10:43:42;;;;;;;9.50;1.98;;;21.20;55.30;;;;;;5051674;28;20033;-71
2022/05/18 10:46:29;;;;;;;6.72;2.00;;;20.80;55.60;;;;;;5050502;28;20036;-71
2022/05/18 10:49:07;;;;;;;2.00;1.30;;;21.00;56.20;;;;;;5051555;28;20033;-72
2022/05/18 10:51:39;;;;;;;4.45;1.95;;;20.90;55.60;;;;;;5054319;28;20033;-72
2022/05/18 10:54:15;;;;;;;6.50;1.90;;;20.80;55.90;;;;;;5055597;28;20081;-71
2022/05/18 10:56:43;;;;;;;5.63;2.08;;;20.70;55.70;;;;;;5055643;28;20033;-72
2022/05/18 10:59:17;;;;;;;11.35;2.20;;;20.80;56.10;;;;;;5055191;28;20040;-72
2022/05/18 11:01:54;;;;;;;19.55;1.35;;;21.00;56.80;;;;;;5055495;28;20471;-71
2022/05/18 11:04:51;;;;;;;6.72;2.10;;;20.60;55.10;;;;;;5055253;28;20021;-72
2022/05/18 11:07:26;;;;;;;5.35;1.60;;;20.70;55.30;;;;;;5055026;28;20035;-70
2022/05/18 11:09:53;;;;;;;3.03;1.40;;;20.90;54.90;;;;;;5055155;28;20463;-69
2022/05/18 11:12:43;;;;;;;5.18;1.52;;;21.20;56.30;;;;;;5051738;28;20097;-72
2022/05/18 11:15:17;;;;;;;2.80;1.77;;;21.00;55.10;;;;;;5055305;28;20390;-73
2022/05/18 11:17:55;;;;;;;4.60;1.88;;;21.00;54.50;;;;;;5052358;28;20071;-71
2022/05/18 11:20:53;;;;;;;5.13;1.23;;;21.10;56.90;;;;;;5055064;28;20033;-71
2022/05/18 11:23:34;;;;;;;3.75;1.52;;;21.00;54.80;;;;;;5054757;28;20478;-71
2022/05/18 11:26:13;;;;;;;6.85;1.30;;;20.70;53.50;;;;;;5054512;28;20163;-72
2022/05/18 11:29:00;;;;;;;2.08;1.50;;;20.60;53.60;;;;;;5054542;28;20045;-72
2022/05/18 11:31:32;;;;;;;4.30;1.52;;;21.00;57.10;;;;;;5055232;28;20378;-73
2022/05/18 11:34:37;;;;;;;4.15;1.35;;;21.10;55.20;;;;;;5054519;28;20450;-73
2022/05/18 11:37:17;;;;;;;5.30;1.30;;;21.10;56.00;;;;;;5041930;28;20048;-72
2022/05/18 11:40:06;;;;;;;2.95;1.50;;;21.00;54.20;;;;;;5052476;28;20037;-72
2022/05/18 11:43:25;;;;;;;2.45;1.20;;;21.00;54.60;;;;;;5052433;28;20039;-72
2022/05/18 11:46:31;;;;;;;3.55;1.80;;;21.10;55.00;;;;;;5044535;28;20460;-71
2022/05/18 11:49:11;;;;;;;21.00;2.25;;;21.10;54.40;;;;;;4987714;28;20054;-72
2022/05/18 11:52:01;;;;;;;13.05;1.45;;;21.10;54.30;;;;;;4973402;28;20034;-72
2022/05/18 11:54:42;;;;;;;8.02;1.55;;;21.00;53.80;;;;;;4992502;28;20042;-69
2022/05/18 11:57:21;;;;;;;1.90;1.00;;;20.90;52.40;;;;;;5003327;28;20030;-71
2022/05/18 12:00:07;;;;;;;1.27;1.00;;;20.90;52.20;;;;;;5001059;28;20368;-68
2022/05/18 12:03:08;;;;;;;2.15;1.05;;;20.80;51.60;;;;;;5005667;28;20034;-65
2022/05/18 12:06:10;;;;;;;4.22;1.38;;;20.90;51.40;;;;;;4993947;28;20412;-72
2022/05/18 12:08:59;;;;;;;5.10;1.20;;;20.80;50.40;;;;;;4993527;28;20717;-72
2022/05/18 12:11:48;;;;;;;4.97;2.13;;;20.90;52.20;;;;;;4985506;28;20035;-69
2022/05/18 12:14:33;;;;;;;2.25;1.10;;;20.70;50.60;;;;;;4978762;28;20046;-71
2022/05/18 12:17:30;;;;;;;3.22;1.02;;;20.90;51.70;;;;;;4972933;28;20040;-68
2022/05/18 12:20:13;;;;;;;3.10;1.25;;;20.80;49.80;;;;;;4981782;28;20090;-65
2022/05/18 12:22:45;;;;;;;8.60;1.70;;;20.70;50.20;;;;;;4979029;28;20037;-68
2022/05/18 12:25:15;;;;;;;2.65;1.27;;;20.80;50.50;;;;;;5009352;28;20090;-70
2022/05/18 12:27:42;;;;;;;5.70;1.63;;;21.10;52.20;;;;;;5033866;28;20379;-72
2022/05/18 12:30:12;;;;;;;1.83;1.10;;;21.10;52.60;;;;;;5039992;28;20029;-69
2022/05/18 12:32:39;;;;;;;4.63;1.65;;;20.90;50.40;;;;;;5061086;28;20108;-68
2022/05/18 12:35:32;;;;;;;5.25;1.52;;;21.10;51.50;;;;;;5034106;28;20108;-73
2022/05/18 12:37:58;;;;;;;6.03;1.27;;;21.00;49.50;;;;;;5066454;28;20028;-71
2022/05/18 12:40:45;;;;;;;3.15;1.42;;;20.90;49.80;;;;;;5073338;28;20147;-72
2022/05/18 12:43:45;;;;;;;2.13;1.38;;;20.90;49.70;;;;;;5073373;28;20055;-72
2022/05/18 12:46:32;;;;;;;3.13;1.30;;;21.10;50.70;;;;;;5071465;28;20032;-72
2022/05/18 12:49:02;;;;;;;7.13;1.83;;;21.20;49.30;;;;;;5052827;28;20043;-70
2022/05/18 12:51:27;;;;;;;4.72;1.10;;;21.20;48.20;;;;;;5054477;28;20100;-70
2022/05/18 12:54:03;;;;;;;4.07;1.25;;;21.20;46.90;;;;;;5053383;28;20146;-64
2022/05/18 12:56:37;;;;;;;3.83;1.35;;;21.10;47.10;;;;;;5034351;28;20029;-71
2022/05/18 12:59:36;;;;;;;5.07;1.45;;;21.20;46.80;;;;;;5033022;28;20025;-70
2022/05/18 13:02:05;;;;;;;6.25;1.45;;;21.10;46.10;;;;;;5030955;28;20107;-64
2022/05/18 13:04:40;;;;;;;3.50;1.38;;;21.10;46.40;;;;;;5032746;28;20025;-69
2022/05/18 13:07:21;;;;;;;4.60;1.17;;;21.20;48.30;;;;;;5032647;28;20026;-72
2022/05/18 13:09:47;;;;;;;4.72;1.25;;;21.30;47.70;;;;;;5032844;28;20080;-72
2022/05/18 13:12:26;;;;;;;3.40;1.30;;;21.20;44.80;;;;;;5032443;28;20025;-73
2022/05/18 13:15:03;;;;;;;2.38;1.20;;;21.20;46.30;;;;;;5045218;28;20024;-65
2022/05/18 13:17:47;;;;;;;2.85;1.35;;;21.20;44.10;;;;;;5072521;28;20020;-72
2022/05/18 13:20:32;;;;;;;1.88;0.85;;;21.10;44.00;;;;;;5033882;28;20491;-72
2022/05/18 13:23:27;;;;;;;4.07;1.10;;;21.20;44.00;;;;;;5032402;28;20024;-71
2022/05/18 13:26:00;;;;;;;1.00;0.90;;;21.00;43.00;;;;;;5032679;28;20057;-73